sensor_id;sensor_type;location;lat;lon;timestamp;pressure;altitude;pressure_sealevel;temperature;humidity
73284;BME280;61519;60.050;18.582;2023-11-19T00:00:06;101887.13;;;-2.74;64.08
73284;BME280;61519;60.050;18.582;2023-11-19T00:02:36;101912.66;;;-2.47;64.40
73284;BME280;61519;60.050;18.582;2023-11-19T00:05:01;101919.44;;;-2.45;64.40
73284;BME280;61519;60.050;18.582;2023-11-19T00:07:27;101909.03;;;-2.43;63.98
73284;BME280;61519;60.050;18.582;2023-11-19T00:09:52;101933.94;;;-2.22;63.95
73284;BME280;61519;60.050;18.582;2023-11-19T00:12:17;101860.13;;;-2.67;64.17
73284;BME280;61519;60.050;18.582;2023-11-19T00:14:43;101925.28;;;-2.21;64.11
73284;BME280;61519;60.050;18.582;2023-11-19T00:17:09;101902.47;;;-2.32;64.26
73284;BME280;61519;60.050;18.582;2023-11-19T00:19:34;101877.34;;;-2.47;64.13
73284;BME280;61519;60.050;18.582;2023-11-19T00:22:00;101921.81;;;-2.20;64.30
73284;BME280;61519;60.050;18.582;2023-11-19T00:24:28;101910.03;;;-2.27;63.97
73284;BME280;61519;60.050;18.582;2023-11-19T00:26:53;101916.63;;;-2.20;64.32
73284;BME280;61519;60.050;18.582;2023-11-19T00:29:19;101905.53;;;-2.22;64.16
73284;BME280;61519;60.050;18.582;2023-11-19T00:31:45;101911.31;;;-2.17;64.03
73284;BME280;61519;60.050;18.582;2023-11-19T00:34:10;101866.81;;;-2.42;64.07
73284;BME280;61519;60.050;18.582;2023-11-19T00:36:36;101875.88;;;-2.34;64.13
73284;BME280;61519;60.050;18.582;2023-11-19T00:39:01;101837.38;;;-2.58;64.28
73284;BME280;61519;60.050;18.582;2023-11-19T00:41:27;101847.31;;;-2.49;63.85
73284;BME280;61519;60.050;18.582;2023-11-19T00:43:52;101875.69;;;-2.29;64.25
73284;BME280;61519;60.050;18.582;2023-11-19T00:46:17;101872.97;;;-2.26;64.22
73284;BME280;61519;60.050;18.582;2023-11-19T00:48:43;101891.25;;;-2.12;64.30
73284;BME280;61519;60.050;18.582;2023-11-19T00:51:08;101856.97;;;-2.34;63.91
73284;BME280;61519;60.050;18.582;2023-11-19T00:53:33;101885.06;;;-2.08;63.92
73284;BME280;61519;60.050;18.582;2023-11-19T00:55:59;101877.25;;;-2.07;64.19
73284;BME280;61519;60.050;18.582;2023-11-19T00:58:25;101865.66;;;-2.17;63.82
73284;BME280;61519;60.050;18.582;2023-11-19T01:00:50;101883.19;;;-2.05;63.88
73284;BME280;61519;60.050;18.582;2023-11-19T01:03:15;101840.28;;;-2.27;64.08
73284;BME280;61519;60.050;18.582;2023-11-19T01:05:41;101876.13;;;-2.01;64.34
73284;BME280;61519;60.050;18.582;2023-11-19T01:08:07;101864.38;;;-2.08;63.81
73284;BME280;61519;60.050;18.582;2023-11-19T01:10:33;101867.59;;;-2.03;63.98
73284;BME280;61519;60.050;18.582;2023-11-19T01:12:59;101869.44;;;-2.05;64.21
73284;BME280;61519;60.050;18.582;2023-11-19T01:15:24;101871.09;;;-2.04;64.13
73284;BME280;61519;60.050;18.582;2023-11-19T01:17:50;101852.47;;;-2.11;64.04
73284;BME280;61519;60.050;18.582;2023-11-19T01:20:15;101833.31;;;-2.25;64.05
73284;BME280;61519;60.050;18.582;2023-11-19T01:22:41;101820.25;;;-2.22;64.36
73284;BME280;61519;60.050;18.582;2023-11-19T01:25:06;101815.22;;;-2.25;63.69
73284;BME280;61519;60.050;18.582;2023-11-19T01:27:32;101807.34;;;-2.22;64.31
73284;BME280;61519;60.050;18.582;2023-11-19T01:29:59;101837.97;;;-1.96;64.19
73284;BME280;61519;60.050;18.582;2023-11-19T01:32:25;101806.13;;;-2.15;63.72
73284;BME280;61519;60.050;18.582;2023-11-19T01:34:50;101808.66;;;-2.14;63.83
73284;BME280;61519;60.050;18.582;2023-11-19T01:37:16;101815.44;;;-2.11;63.89
73284;BME280;61519;60.050;18.582;2023-11-19T01:39:44;101825.59;;;-2.08;63.92
73284;BME280;61519;60.050;18.582;2023-11-19T01:42:10;101802.31;;;-2.25;63.96
73284;BME280;61519;60.050;18.582;2023-11-19T01:44:37;101810.81;;;-2.23;63.81
73284;BME280;61519;60.050;18.582;2023-11-19T01:47:03;101814.66;;;-2.13;64.20
73284;BME280;61519;60.050;18.582;2023-11-19T01:49:30;101790.22;;;-2.25;63.80
73284;BME280;61519;60.050;18.582;2023-11-19T01:51:57;101826.34;;;-2.05;64.27
73284;BME280;61519;60.050;18.582;2023-11-19T01:54:23;101802.09;;;-2.21;64.26
73284;BME280;61519;60.050;18.582;2023-11-19T01:56:49;101772.50;;;-2.32;64.26
73284;BME280;61519;60.050;18.582;2023-11-19T01:59:15;101787.56;;;-2.23;64.13
73284;BME280;61519;60.050;18.582;2023-11-19T02:01:41;101798.47;;;-2.17;64.31
73284;BME280;61519;60.050;18.582;2023-11-19T02:04:07;101810.94;;;-2.08;64.07
73284;BME280;61519;60.050;18.582;2023-11-19T02:06:34;101804.31;;;-2.13;63.96
73284;BME280;61519;60.050;18.582;2023-11-19T02:09:00;101796.50;;;-2.12;63.95
73284;BME280;61519;60.050;18.582;2023-11-19T02:11:26;101761.94;;;-2.28;63.89
73284;BME280;61519;60.050;18.582;2023-11-19T02:13:55;101778.63;;;-2.16;63.89
73284;BME280;61519;60.050;18.582;2023-11-19T02:16:21;101772.72;;;-2.18;63.97
73284;BME280;61519;60.050;18.582;2023-11-19T02:18:46;101761.31;;;-2.33;64.15
73284;BME280;61519;60.050;18.582;2023-11-19T02:21:11;101714.81;;;-2.51;64.13
73284;BME280;61519;60.050;18.582;2023-11-19T02:23:37;101781.91;;;-2.13;63.87
73284;BME280;61519;60.050;18.582;2023-11-19T02:26:10;101750.91;;;-2.31;63.81
73284;BME280;61519;60.050;18.582;2023-11-19T02:28:39;101775.81;;;-2.12;64.29
73284;BME280;61519;60.050;18.582;2023-11-19T02:31:05;101702.75;;;-2.51;63.99
73284;BME280;61519;60.050;18.582;2023-11-19T02:33:34;101747.91;;;-2.22;63.90
73284;BME280;61519;60.050;18.582;2023-11-19T02:36:00;101723.78;;;-2.40;64.01
73284;BME280;61519;60.050;18.582;2023-11-19T02:38:26;101748.31;;;-2.31;64.08
73284;BME280;61519;60.050;18.582;2023-11-19T02:40:51;101727.94;;;-2.37;64.10
73284;BME280;61519;60.050;18.582;2023-11-19T02:43:17;101737.22;;;-2.33;64.17
73284;BME280;61519;60.050;18.582;2023-11-19T02:45:43;101760.00;;;-2.23;64.17
73284;BME280;61519;60.050;18.582;2023-11-19T02:48:11;101757.00;;;-2.32;63.92
73284;BME280;61519;60.050;18.582;2023-11-19T02:50:36;101730.19;;;-2.48;63.68
73284;BME280;61519;60.050;18.582;2023-11-19T02:53:02;101756.06;;;-2.31;63.97
73284;BME280;61519;60.050;18.582;2023-11-19T02:55:27;101745.13;;;-2.36;63.88
73284;BME280;61519;60.050;18.582;2023-11-19T02:57:58;101754.41;;;-2.32;63.94
73284;BME280;61519;60.050;18.582;2023-11-19T03:00:25;101724.34;;;-2.52;64.33
73284;BME280;61519;60.050;18.582;2023-11-19T03:02:57;101724.06;;;-2.46;64.16
73284;BME280;61519;60.050;18.582;2023-11-19T03:05:35;101743.59;;;-2.40;63.86
73284;BME280;61519;60.050;18.582;2023-11-19T03:08:00;101742.19;;;-2.47;64.10
73284;BME280;61519;60.050;18.582;2023-11-19T03:10:26;101752.50;;;-2.47;63.70
73284;BME280;61519;60.050;18.582;2023-11-19T03:12:51;101725.59;;;-2.60;64.17
73284;BME280;61519;60.050;18.582;2023-11-19T03:15:17;101733.22;;;-2.57;63.92
73284;BME280;61519;60.050;18.582;2023-11-19T03:17:42;101692.34;;;-2.87;63.95
73284;BME280;61519;60.050;18.582;2023-11-19T03:20:10;101732.38;;;-2.58;64.20
73284;BME280;61519;60.050;18.582;2023-11-19T03:22:39;101721.34;;;-2.61;64.21
73284;BME280;61519;60.050;18.582;2023-11-19T03:25:07;101716.38;;;-2.66;64.03
73284;BME280;61519;60.050;18.582;2023-11-19T03:27:37;101703.94;;;-2.77;63.73
73284;BME280;61519;60.050;18.582;2023-11-19T03:30:04;101671.44;;;-2.99;63.93
73284;BME280;61519;60.050;18.582;2023-11-19T03:32:32;101662.25;;;-3.05;63.84
73284;BME280;61519;60.050;18.582;2023-11-19T03:34:59;101713.22;;;-2.73;64.08
73284;BME280;61519;60.050;18.582;2023-11-19T03:37:26;101709.69;;;-2.70;64.06
73284;BME280;61519;60.050;18.582;2023-11-19T03:39:53;101714.00;;;-2.71;64.44
73284;BME280;61519;60.050;18.582;2023-11-19T03:42:19;101698.00;;;-2.79;64.17
73284;BME280;61519;60.050;18.582;2023-11-19T03:44:46;101672.13;;;-2.96;64.17
73284;BME280;61519;60.050;18.582;2023-11-19T03:47:11;101674.53;;;-2.91;64.04
73284;BME280;61519;60.050;18.582;2023-11-19T03:49:36;101677.16;;;-2.93;63.89
73284;BME280;61519;60.050;18.582;2023-11-19T03:52:02;101687.00;;;-2.82;64.12
73284;BME280;61519;60.050;18.582;2023-11-19T03:54:27;101651.16;;;-3.07;63.87
73284;BME280;61519;60.050;18.582;2023-11-19T03:56:53;101673.53;;;-2.89;63.91
73284;BME280;61519;60.050;18.582;2023-11-19T03:59:18;101685.25;;;-2.82;63.62
73284;BME280;61519;60.050;18.582;2023-11-19T04:01:45;101657.88;;;-3.04;63.84
73284;BME280;61519;60.050;18.582;2023-11-19T04:04:11;101700.75;;;-2.82;63.74
73284;BME280;61519;60.050;18.582;2023-11-19T04:06:37;101670.59;;;-3.00;63.99
73284;BME280;61519;60.050;18.582;2023-11-19T04:09:02;101675.47;;;-2.94;63.71
73284;BME280;61519;60.050;18.582;2023-11-19T04:11:28;101624.63;;;-3.29;63.81
73284;BME280;61519;60.050;18.582;2023-11-19T04:13:53;101674.56;;;-2.93;63.71
73284;BME280;61519;60.050;18.582;2023-11-19T04:16:18;101647.72;;;-3.07;63.65
73284;BME280;61519;60.050;18.582;2023-11-19T04:18:44;101665.84;;;-2.90;64.07
73284;BME280;61519;60.050;18.582;2023-11-19T04:21:09;101599.88;;;-3.33;63.56
73284;BME280;61519;60.050;18.582;2023-11-19T04:23:34;101627.34;;;-3.13;63.64
73284;BME280;61519;60.050;18.582;2023-11-19T04:26:04;101671.59;;;-2.84;63.78
73284;BME280;61519;60.050;18.582;2023-11-19T04:28:30;101645.84;;;-3.04;63.66
73284;BME280;61519;60.050;18.582;2023-11-19T04:30:55;101654.97;;;-2.97;63.79
73284;BME280;61519;60.050;18.582;2023-11-19T04:33:21;101665.84;;;-2.90;64.20
73284;BME280;61519;60.050;18.582;2023-11-19T04:35:46;101664.19;;;-2.91;63.71
73284;BME280;61519;60.050;18.582;2023-11-19T04:38:12;101658.31;;;-2.95;63.88
73284;BME280;61519;60.050;18.582;2023-11-19T04:40:37;101634.56;;;-3.01;63.59
73284;BME280;61519;60.050;18.582;2023-11-19T04:43:02;101649.81;;;-2.97;63.87
73284;BME280;61519;60.050;18.582;2023-11-19T04:45:27;101596.66;;;-3.38;63.64
73284;BME280;61519;60.050;18.582;2023-11-19T04:47:53;101625.91;;;-3.19;63.55
73284;BME280;61519;60.050;18.582;2023-11-19T04:50:18;101640.34;;;-3.15;63.98
73284;BME280;61519;60.050;18.582;2023-11-19T04:52:43;101606.06;;;-3.37;63.66
73284;BME280;61519;60.050;18.582;2023-11-19T04:55:15;101606.56;;;-3.29;63.82
73284;BME280;61519;60.050;18.582;2023-11-19T04:57:40;101604.00;;;-3.29;63.98
73284;BME280;61519;60.050;18.582;2023-11-19T05:00:06;101610.63;;;-3.23;63.67
73284;BME280;61519;60.050;18.582;2023-11-19T05:02:34;101603.03;;;-3.26;63.89
73284;BME280;61519;60.050;18.582;2023-11-19T05:04:59;101617.38;;;-3.21;63.73
73284;BME280;61519;60.050;18.582;2023-11-19T05:07:24;101616.47;;;-3.20;64.24
73284;BME280;61519;60.050;18.582;2023-11-19T05:09:50;101591.09;;;-3.29;64.02
73284;BME280;61519;60.050;18.582;2023-11-19T05:12:15;101579.53;;;-3.39;63.74
73284;BME280;61519;60.050;18.582;2023-11-19T05:14:40;101522.34;;;-3.67;64.03
73284;BME280;61519;60.050;18.582;2023-11-19T05:17:13;101563.00;;;-3.35;63.79
73284;BME280;61519;60.050;18.582;2023-11-19T05:19:38;101587.19;;;-3.19;64.11
73284;BME280;61519;60.050;18.582;2023-11-19T05:22:03;101565.59;;;-3.35;63.70
73284;BME280;61519;60.050;18.582;2023-11-19T05:24:29;101563.34;;;-3.42;63.70
73284;BME280;61519;60.050;18.582;2023-11-19T05:26:54;101575.63;;;-3.29;64.10
73284;BME280;61519;60.050;18.582;2023-11-19T05:29:20;101575.47;;;-3.26;63.70
73284;BME280;61519;60.050;18.582;2023-11-19T05:31:45;101565.09;;;-3.24;63.86
73284;BME280;61519;60.050;18.582;2023-11-19T05:34:10;101555.75;;;-3.27;64.02
73284;BME280;61519;60.050;18.582;2023-11-19T05:36:36;101553.88;;;-3.23;64.04
73284;BME280;61519;60.050;18.582;2023-11-19T05:39:02;101545.44;;;-3.27;63.83
73284;BME280;61519;60.050;18.582;2023-11-19T05:41:29;101578.13;;;-3.09;64.08
73284;BME280;61519;60.050;18.582;2023-11-19T05:43:55;101582.44;;;-3.09;63.86
73284;BME280;61519;60.050;18.582;2023-11-19T05:46:20;101577.28;;;-3.09;64.13
73284;BME280;61519;60.050;18.582;2023-11-19T05:48:45;101566.41;;;-3.16;64.17
73284;BME280;61519;60.050;18.582;2023-11-19T05:51:11;101574.50;;;-3.05;63.82
73284;BME280;61519;60.050;18.582;2023-11-19T05:53:37;101545.66;;;-3.13;63.82
73284;BME280;61519;60.050;18.582;2023-11-19T05:56:02;101533.91;;;-3.20;64.06
73284;BME280;61519;60.050;18.582;2023-11-19T05:58:29;101537.94;;;-3.14;64.08
73284;BME280;61519;60.050;18.582;2023-11-19T06:00:55;101567.09;;;-2.94;63.79
73284;BME280;61519;60.050;18.582;2023-11-19T06:03:21;101537.53;;;-3.05;63.83
73284;BME280;61519;60.050;18.582;2023-11-19T06:05:47;101550.84;;;-2.96;64.01
73284;BME280;61519;60.050;18.582;2023-11-19T06:08:13;101553.28;;;-2.93;64.19
73284;BME280;61519;60.050;18.582;2023-11-19T06:10:40;101501.44;;;-3.24;64.15
73284;BME280;61519;60.050;18.582;2023-11-19T06:13:05;101523.19;;;-3.11;64.02
73284;BME280;61519;60.050;18.582;2023-11-19T06:15:32;101517.75;;;-3.05;64.08
73284;BME280;61519;60.050;18.582;2023-11-19T06:17:58;101541.13;;;-2.91;63.89
73284;BME280;61519;60.050;18.582;2023-11-19T06:20:26;101523.44;;;-2.98;63.86
73284;BME280;61519;60.050;18.582;2023-11-19T06:22:53;101484.03;;;-3.19;64.00
73284;BME280;61519;60.050;18.582;2023-11-19T06:25:18;101513.41;;;-3.04;64.09
73284;BME280;61519;60.050;18.582;2023-11-19T06:27:44;101511.75;;;-3.05;64.00
73284;BME280;61519;60.050;18.582;2023-11-19T06:30:09;101561.19;;;-2.79;64.35
73284;BME280;61519;60.050;18.582;2023-11-19T06:32:35;101524.97;;;-2.94;63.96
73284;BME280;61519;60.050;18.582;2023-11-19T06:35:00;101520.78;;;-2.97;63.76
73284;BME280;61519;60.050;18.582;2023-11-19T06:37:26;101536.97;;;-2.93;64.47
73284;BME280;61519;60.050;18.582;2023-11-19T06:39:52;101545.13;;;-2.84;64.01
73284;BME280;61519;60.050;18.582;2023-11-19T06:42:17;101487.78;;;-3.26;63.80
73284;BME280;61519;60.050;18.582;2023-11-19T06:44:43;101553.47;;;-2.79;64.10
73284;BME280;61519;60.050;18.582;2023-11-19T06:47:08;101470.78;;;-3.30;64.11
73284;BME280;61519;60.050;18.582;2023-11-19T06:49:33;101525.81;;;-2.94;64.29
73284;BME280;61519;60.050;18.582;2023-11-19T06:51:59;101546.72;;;-2.81;64.11
73284;BME280;61519;60.050;18.582;2023-11-19T06:54:24;101520.66;;;-2.94;64.08
73284;BME280;61519;60.050;18.582;2023-11-19T06:56:49;101547.41;;;-2.78;64.10
73284;BME280;61519;60.050;18.582;2023-11-19T06:59:15;101530.03;;;-2.93;64.10
73284;BME280;61519;60.050;18.582;2023-11-19T07:01:40;101511.09;;;-3.10;64.24
73284;BME280;61519;60.050;18.582;2023-11-19T07:04:08;101491.00;;;-3.21;64.05
73284;BME280;61519;60.050;18.582;2023-11-19T07:06:35;101511.06;;;-3.09;64.12
73284;BME280;61519;60.050;18.582;2023-11-19T07:09:02;101541.41;;;-2.97;63.89
73284;BME280;61519;60.050;18.582;2023-11-19T07:11:37;101507.44;;;-3.23;64.27
73284;BME280;61519;60.050;18.582;2023-11-19T07:14:04;101531.25;;;-3.00;64.32
73284;BME280;61519;60.050;18.582;2023-11-19T07:16:29;101510.28;;;-3.11;64.15
73284;BME280;61519;60.050;18.582;2023-11-19T07:18:55;101515.50;;;-3.12;64.44
73284;BME280;61519;60.050;18.582;2023-11-19T07:21:21;101477.47;;;-3.26;64.08
73284;BME280;61519;60.050;18.582;2023-11-19T07:23:46;101478.38;;;-3.27;64.07
73284;BME280;61519;60.050;18.582;2023-11-19T07:26:12;101530.28;;;-2.97;64.14
73284;BME280;61519;60.050;18.582;2023-11-19T07:28:37;101498.94;;;-3.07;64.31
73284;BME280;61519;60.050;18.582;2023-11-19T07:31:05;101437.00;;;-3.42;63.99
73284;BME280;61519;60.050;18.582;2023-11-19T07:33:32;101485.56;;;-3.15;64.00
73284;BME280;61519;60.050;18.582;2023-11-19T07:35:58;101458.16;;;-3.36;64.10
73284;BME280;61519;60.050;18.582;2023-11-19T07:38:24;101437.91;;;-3.43;64.17
73284;BME280;61519;60.050;18.582;2023-11-19T07:40:49;101461.97;;;-3.26;64.25
73284;BME280;61519;60.050;18.582;2023-11-19T07:43:14;101504.31;;;-2.94;63.78
73284;BME280;61519;60.050;18.582;2023-11-19T07:45:40;101482.41;;;-3.03;63.95
73284;BME280;61519;60.050;18.582;2023-11-19T07:48:09;101506.69;;;-2.90;63.95
73284;BME280;61519;60.050;18.582;2023-11-19T07:50:35;101481.47;;;-3.02;63.97
73284;BME280;61519;60.050;18.582;2023-11-19T07:53:00;101485.38;;;-2.93;64.37
73284;BME280;61519;60.050;18.582;2023-11-19T07:55:27;101517.94;;;-2.74;63.98
73284;BME280;61519;60.050;18.582;2023-11-19T07:57:52;101484.50;;;-2.94;64.00
73284;BME280;61519;60.050;18.582;2023-11-19T08:00:20;101503.91;;;-2.85;63.76
73284;BME280;61519;60.050;18.582;2023-11-19T08:02:45;101508.22;;;-2.86;63.92
73284;BME280;61519;60.050;18.582;2023-11-19T08:05:10;101509.19;;;-2.88;64.25
73284;BME280;61519;60.050;18.582;2023-11-19T08:07:37;101518.47;;;-2.84;64.23
73284;BME280;61519;60.050;18.582;2023-11-19T08:10:02;101509.19;;;-2.88;63.96
73284;BME280;61519;60.050;18.582;2023-11-19T08:12:30;101509.94;;;-2.86;64.19
73284;BME280;61519;60.050;18.582;2023-11-19T08:14:55;101462.84;;;-3.08;63.98
73284;BME280;61519;60.050;18.582;2023-11-19T08:17:20;101472.66;;;-2.98;64.03
73284;BME280;61519;60.050;18.582;2023-11-19T08:19:55;101481.19;;;-2.96;64.10
73284;BME280;61519;60.050;18.582;2023-11-19T08:22:20;101465.00;;;-2.99;63.96
73284;BME280;61519;60.050;18.582;2023-11-19T08:24:47;101451.44;;;-3.03;64.06
73284;BME280;61519;60.050;18.582;2023-11-19T08:27:13;101471.41;;;-2.89;63.87
73284;BME280;61519;60.050;18.582;2023-11-19T08:29:43;101462.06;;;-2.92;64.15
73284;BME280;61519;60.050;18.582;2023-11-19T08:32:17;101482.09;;;-2.80;64.07
73284;BME280;61519;60.050;18.582;2023-11-19T08:34:43;101445.34;;;-3.02;64.19
73284;BME280;61519;60.050;18.582;2023-11-19T08:37:10;101445.13;;;-2.97;64.03
73284;BME280;61519;60.050;18.582;2023-11-19T08:39:36;101494.34;;;-2.66;63.99
73284;BME280;61519;60.050;18.582;2023-11-19T08:42:03;101457.44;;;-2.85;63.87
73284;BME280;61519;60.050;18.582;2023-11-19T08:44:28;101471.63;;;-2.77;64.06
73284;BME280;61519;60.050;18.582;2023-11-19T08:46:53;101433.19;;;-3.00;63.69
73284;BME280;61519;60.050;18.582;2023-11-19T08:49:19;101461.00;;;-2.88;63.76
73284;BME280;61519;60.050;18.582;2023-11-19T08:51:44;101476.56;;;-2.72;64.17
73284;BME280;61519;60.050;18.582;2023-11-19T08:54:10;101443.06;;;-2.91;63.93
73284;BME280;61519;60.050;18.582;2023-11-19T08:56:36;101474.81;;;-2.72;63.85
73284;BME280;61519;60.050;18.582;2023-11-19T08:59:01;101484.22;;;-2.71;64.22
73284;BME280;61519;60.050;18.582;2023-11-19T09:01:27;101487.44;;;-2.65;63.84
73284;BME280;61519;60.050;18.582;2023-11-19T09:03:53;101478.00;;;-2.67;64.17
73284;BME280;61519;60.050;18.582;2023-11-19T09:06:19;101460.09;;;-2.70;63.91
73284;BME280;61519;60.050;18.582;2023-11-19T09:08:44;101469.19;;;-2.62;64.01
73284;BME280;61519;60.050;18.582;2023-11-19T09:11:10;101472.25;;;-2.54;63.56
73284;BME280;61519;60.050;18.582;2023-11-19T09:13:36;101455.41;;;-2.61;63.62
73284;BME280;61519;60.050;18.582;2023-11-19T09:16:01;101465.94;;;-2.49;64.02
73284;BME280;61519;60.050;18.582;2023-11-19T09:18:30;101428.06;;;-2.65;63.87
73284;BME280;61519;60.050;18.582;2023-11-19T09:20:55;101451.09;;;-2.45;63.84
73284;BME280;61519;60.050;18.582;2023-11-19T09:23:21;101427.28;;;-2.50;63.75
73284;BME280;61519;60.050;18.582;2023-11-19T09:25:46;101441.09;;;-2.34;63.65
73284;BME280;61519;60.050;18.582;2023-11-19T09:28:12;101447.19;;;-2.20;63.83
73284;BME280;61519;60.050;18.582;2023-11-19T09:30:39;101434.22;;;-2.18;63.61
73284;BME280;61519;60.050;18.582;2023-11-19T09:33:04;101419.03;;;-2.24;63.69
73284;BME280;61519;60.050;18.582;2023-11-19T09:35:30;101417.03;;;-2.19;63.54
73284;BME280;61519;60.050;18.582;2023-11-19T09:37:56;101459.06;;;-2.00;63.57
73284;BME280;61519;60.050;18.582;2023-11-19T09:40:21;101401.84;;;-2.25;63.51
73284;BME280;61519;60.050;18.582;2023-11-19T09:42:47;101417.88;;;-2.19;63.23
73284;BME280;61519;60.050;18.582;2023-11-19T09:45:14;101442.59;;;-1.98;63.24
73284;BME280;61519;60.050;18.582;2023-11-19T09:47:43;101458.63;;;-1.91;63.39
73284;BME280;61519;60.050;18.582;2023-11-19T09:50:10;101442.03;;;-1.87;63.40
73284;BME280;61519;60.050;18.582;2023-11-19T09:52:39;101418.41;;;-1.97;63.38
73284;BME280;61519;60.050;18.582;2023-11-19T09:55:04;101431.75;;;-1.89;63.52
73284;BME280;61519;60.050;18.582;2023-11-19T09:57:31;101438.19;;;-1.80;63.37
73284;BME280;61519;60.050;18.582;2023-11-19T09:59:58;101430.75;;;-1.86;63.44
73284;BME280;61519;60.050;18.582;2023-11-19T10:02:23;101436.34;;;-1.78;63.39
73284;BME280;61519;60.050;18.582;2023-11-19T10:04:49;101416.09;;;-1.86;63.20
73284;BME280;61519;60.050;18.582;2023-11-19T10:07:16;101413.75;;;-1.90;63.46
73284;BME280;61519;60.050;18.582;2023-11-19T10:09:41;101421.78;;;-1.79;63.43
73284;BME280;61519;60.050;18.582;2023-11-19T10:12:07;101423.84;;;-1.70;63.28
73284;BME280;61519;60.050;18.582;2023-11-19T10:14:34;101432.19;;;-1.65;63.25
73284;BME280;61519;60.050;18.582;2023-11-19T10:17:03;101393.06;;;-1.90;63.12
73284;BME280;61519;60.050;18.582;2023-11-19T10:19:29;101419.44;;;-1.68;63.13
73284;BME280;61519;60.050;18.582;2023-11-19T10:21:54;101396.66;;;-1.77;63.08
73284;BME280;61519;60.050;18.582;2023-11-19T10:24:33;101412.53;;;-1.67;63.31
73284;BME280;61519;60.050;18.582;2023-11-19T10:27:02;101397.25;;;-1.72;63.17
73284;BME280;61519;60.050;18.582;2023-11-19T10:29:29;101427.09;;;-1.51;63.33
73284;BME280;61519;60.050;18.582;2023-11-19T10:31:58;101420.84;;;-1.47;63.16
73284;BME280;61519;60.050;18.582;2023-11-19T10:34:25;101406.69;;;-1.55;63.21
73284;BME280;61519;60.050;18.582;2023-11-19T10:36:51;101411.91;;;-1.41;63.28
73284;BME280;61519;60.050;18.582;2023-11-19T10:39:16;101384.41;;;-1.58;63.08
73284;BME280;61519;60.050;18.582;2023-11-19T10:41:43;101404.41;;;-1.46;63.26
73284;BME280;61519;60.050;18.582;2023-11-19T10:44:08;101406.66;;;-1.40;62.89
73284;BME280;61519;60.050;18.582;2023-11-19T10:46:41;101350.28;;;-1.64;63.37
73284;BME280;61519;60.050;18.582;2023-11-19T10:49:10;101365.34;;;-1.57;62.83
73284;BME280;61519;60.050;18.582;2023-11-19T10:51:36;101399.13;;;-1.29;63.17
73284;BME280;61519;60.050;18.582;2023-11-19T10:54:05;101377.94;;;-1.35;63.10
73284;BME280;61519;60.050;18.582;2023-11-19T10:56:33;101393.06;;;-1.14;63.09
73284;BME280;61519;60.050;18.582;2023-11-19T10:59:02;101378.81;;;-1.21;62.79
73284;BME280;61519;60.050;18.582;2023-11-19T11:01:43;101381.81;;;-1.13;62.79
73284;BME280;61519;60.050;18.582;2023-11-19T11:04:19;101398.16;;;-0.97;62.82
73284;BME280;61519;60.050;18.582;2023-11-19T11:06:48;101399.44;;;-0.90;62.91
73284;BME280;61519;60.050;18.582;2023-11-19T11:09:14;101397.34;;;-0.83;63.04
73284;BME280;61519;60.050;18.582;2023-11-19T11:11:40;101376.69;;;-0.84;62.70
73284;BME280;61519;60.050;18.582;2023-11-19T11:14:11;101378.56;;;-0.72;62.82
73284;BME280;61519;60.050;18.582;2023-11-19T11:16:37;101364.34;;;-0.79;62.80
73284;BME280;61519;60.050;18.582;2023-11-19T11:19:06;101378.59;;;-0.58;62.47
73284;BME280;61519;60.050;18.582;2023-11-19T11:21:31;101356.22;;;-0.59;62.48
73284;BME280;61519;60.050;18.582;2023-11-19T11:24:10;101380.00;;;-0.39;62.30
73284;BME280;61519;60.050;18.582;2023-11-19T11:32:48;101351.94;;;-0.04;62.14
73284;BME280;61519;60.050;18.582;2023-11-19T11:35:51;101344.03;;;0.12;62.03
73284;BME280;61519;60.050;18.582;2023-11-19T11:38:23;101328.28;;;0.15;61.91
73284;BME280;61519;60.050;18.582;2023-11-19T11:41:21;101346.88;;;0.21;61.65
73284;BME280;61519;60.050;18.582;2023-11-19T11:43:48;101345.56;;;0.28;61.62
73284;BME280;61519;60.050;18.582;2023-11-19T11:49:02;101335.41;;;0.38;61.70
73284;BME280;61519;60.050;18.582;2023-11-19T11:54:30;101336.84;;;0.29;61.74
73284;BME280;61519;60.050;18.582;2023-11-19T11:59:36;101317.25;;;0.11;61.47
73284;BME280;61519;60.050;18.582;2023-11-19T12:02:03;101302.28;;;0.02;61.47
73284;BME280;61519;60.050;18.582;2023-11-19T12:04:28;101334.34;;;0.28;61.63
73284;BME280;61519;60.050;18.582;2023-11-19T12:07:07;101321.69;;;0.23;61.36
73284;BME280;61519;60.050;18.582;2023-11-19T12:09:33;101316.28;;;0.26;61.43
73284;BME280;61519;60.050;18.582;2023-11-19T12:12:28;101298.69;;;0.31;61.47
73284;BME280;61519;60.050;18.582;2023-11-19T12:17:48;101315.72;;;0.35;61.65
73284;BME280;61519;60.050;18.582;2023-11-19T12:20:14;101300.31;;;0.20;61.29
73284;BME280;61519;60.050;18.582;2023-11-19T12:22:42;101328.53;;;0.24;61.36
73284;BME280;61519;60.050;18.582;2023-11-19T12:25:10;101330.59;;;0.19;61.59
73284;BME280;61519;60.050;18.582;2023-11-19T12:27:41;101316.81;;;0.05;61.57
73284;BME280;61519;60.050;18.582;2023-11-19T12:30:07;101333.75;;;0.10;61.55
73284;BME280;61519;60.050;18.582;2023-11-19T12:32:40;101335.53;;;0.10;61.59
73284;BME280;61519;60.050;18.582;2023-11-19T12:35:06;101333.00;;;0.08;61.46
73284;BME280;61519;60.050;18.582;2023-11-19T12:37:39;101279.75;;;-0.24;61.57
73284;BME280;61519;60.050;18.582;2023-11-19T12:40:17;101307.44;;;0.02;61.68
73284;BME280;61519;60.050;18.582;2023-11-19T12:42:44;101301.97;;;-0.20;61.13
73284;BME280;61519;60.050;18.582;2023-11-19T12:45:09;101309.00;;;-0.22;61.41
73284;BME280;61519;60.050;18.582;2023-11-19T12:47:36;101328.69;;;-0.20;61.52
73284;BME280;61519;60.050;18.582;2023-11-19T12:50:02;101302.81;;;-0.34;61.42
73284;BME280;61519;60.050;18.582;2023-11-19T12:52:29;101303.84;;;-0.36;61.59
73284;BME280;61519;60.050;18.582;2023-11-19T12:54:55;101289.97;;;-0.49;61.45